N244BR KMEM-KLIT
Flight info
| Callsign | N244BR |
|---|---|
| Flight time | 0h 31m |
| Altitude | 4000 |
| Route | KMEM KLIT DIRECT |
| Aircraft | C25C/L-VGD/A |
Departure
| Time | 2026-04-21 22:06 |
|---|---|
| Airport | Memphis International Airport (KMEM) |
Arrival
| Time | 2026-04-21 22:37 |
|---|---|
| Airport | Bill & Hillary Clinton National Airport/Adams Field (KLIT) |
| Time | Latitude | Longitude | Altitude | Speed | Heading |
|---|---|---|---|---|---|
| 2026-04-21 21:43 | 35.05958 | -89.95906 | 293 ft | 0 kts | 182° |
| 2026-04-21 21:55 | 35.05966 | -89.95906 | 292 ft | 2 kts | 182° |
| 2026-04-21 21:55 | 35.05985 | -89.95905 | 292 ft | 3 kts | 174° |
| 2026-04-21 21:55 | 35.06003 | -89.95919 | 292 ft | 3 kts | 111° |
| 2026-04-21 21:55 | 35.06004 | -89.95920 | 292 ft | 0 kts | 109° |
| 2026-04-21 21:56 | 35.06002 | -89.95902 | 291 ft | 12 kts | 94° |
| 2026-04-21 21:56 | 35.05997 | -89.95776 | 292 ft | 15 kts | 91° |
| 2026-04-21 21:56 | 35.05992 | -89.95658 | 295 ft | 11 kts | 88° |
| 2026-04-21 21:57 | 35.05984 | -89.95590 | 294 ft | 5 kts | 105° |
| 2026-04-21 21:57 | 35.05974 | -89.95546 | 298 ft | 10 kts | 159° |
| 2026-04-21 21:57 | 35.05901 | -89.95591 | 297 ft | 13 kts | 227° |
| 2026-04-21 21:57 | 35.05893 | -89.95700 | 294 ft | 14 kts | 272° |
| 2026-04-21 21:58 | 35.05895 | -89.95818 | 294 ft | 15 kts | 271° |
| 2026-04-21 21:58 | 35.05902 | -89.96033 | 292 ft | 32 kts | 273° |
| 2026-04-21 21:58 | 35.05910 | -89.96309 | 286 ft | 33 kts | 272° |
| 2026-04-21 21:58 | 35.05917 | -89.96569 | 280 ft | 31 kts | 272° |
| 2026-04-21 21:59 | 35.05924 | -89.96833 | 276 ft | 31 kts | 273° |
| 2026-04-21 21:59 | 35.05932 | -89.97088 | 272 ft | 30 kts | 272° |
| 2026-04-21 21:59 | 35.05939 | -89.97343 | 272 ft | 29 kts | 271° |
| 2026-04-21 21:59 | 35.05964 | -89.97581 | 269 ft | 29 kts | 284° |
| 2026-04-21 22:00 | 35.06009 | -89.97821 | 266 ft | 29 kts | 278° |
| 2026-04-21 22:00 | 35.06015 | -89.98063 | 262 ft | 29 kts | 272° |
| 2026-04-21 22:00 | 35.06022 | -89.98308 | 259 ft | 29 kts | 271° |
| 2026-04-21 22:00 | 35.06003 | -89.98507 | 256 ft | 20 kts | 213° |
| 2026-04-21 22:01 | 35.05867 | -89.98508 | 254 ft | 20 kts | 179° |
| 2026-04-21 22:01 | 35.05722 | -89.98508 | 253 ft | 21 kts | 180° |
| 2026-04-21 22:01 | 35.05587 | -89.98509 | 258 ft | 18 kts | 181° |
| 2026-04-21 22:01 | 35.05483 | -89.98510 | 265 ft | 14 kts | 181° |
| 2026-04-21 22:02 | 35.05376 | -89.98511 | 274 ft | 15 kts | 180° |
| 2026-04-21 22:02 | 35.05253 | -89.98513 | 274 ft | 19 kts | 184° |
| 2026-04-21 22:02 | 35.05183 | -89.98514 | 288 ft | 5 kts | 179° |
| 2026-04-21 22:02 | 35.05145 | -89.98516 | 290 ft | 10 kts | 187° |
| 2026-04-21 22:03 | 35.05087 | -89.98536 | 292 ft | 8 kts | 204° |
| 2026-04-21 22:03 | 35.05042 | -89.98562 | 293 ft | 6 kts | 206° |
| 2026-04-21 22:03 | 35.04990 | -89.98594 | 296 ft | 11 kts | 205° |
| 2026-04-21 22:03 | 35.04938 | -89.98634 | 297 ft | 5 kts | 239° |
| 2026-04-21 22:04 | 35.04936 | -89.98641 | 300 ft | 0 kts | 263° |
| 2026-04-21 22:05 | 35.04878 | -89.98742 | 297 ft | 23 kts | 185° |
| 2026-04-21 22:05 | 35.04421 | -89.98731 | 295 ft | 119 kts | 179° |
| 2026-04-21 22:06 | 35.03293 | -89.98705 | 406 ft | 197 kts | 179° |
| 2026-04-21 22:06 | 35.01786 | -89.98657 | 1170 ft | 227 kts | 179° |
| 2026-04-21 22:06 | 35.00278 | -89.98636 | 1679 ft | 207 kts | 181° |
| 2026-04-21 22:06 | 34.98906 | -89.98661 | 2184 ft | 189 kts | 182° |
| 2026-04-21 22:07 | 34.97618 | -89.98735 | 2557 ft | 181 kts | 184° |
| 2026-04-21 22:07 | 34.96373 | -89.98841 | 2851 ft | 177 kts | 184° |
| 2026-04-21 22:07 | 34.95123 | -89.98920 | 2963 ft | 185 kts | 182° |
| 2026-04-21 22:07 | 34.93782 | -89.98976 | 2821 ft | 203 kts | 182° |
| 2026-04-21 22:08 | 34.92318 | -89.99074 | 2807 ft | 209 kts | 188° |
| 2026-04-21 22:08 | 34.90952 | -89.99570 | 2922 ft | 211 kts | 207° |
| 2026-04-21 22:08 | 34.89752 | -90.00749 | 2345 ft | 238 kts | 230° |
| 2026-04-21 22:08 | 34.89029 | -90.02595 | 2378 ft | 233 kts | 257° |
| 2026-04-21 22:09 | 34.88700 | -90.04451 | 2711 ft | 220 kts | 258° |
| 2026-04-21 22:09 | 34.88430 | -90.06285 | 2512 ft | 230 kts | 261° |
| 2026-04-21 22:09 | 34.88202 | -90.08271 | 2269 ft | 240 kts | 263° |
| 2026-04-21 22:09 | 34.87994 | -90.10305 | 2269 ft | 238 kts | 263° |
| 2026-04-21 22:10 | 34.87789 | -90.12303 | 2269 ft | 238 kts | 263° |
| 2026-04-21 22:10 | 34.87585 | -90.14294 | 2262 ft | 236 kts | 263° |
| 2026-04-21 22:10 | 34.87386 | -90.16273 | 2187 ft | 237 kts | 263° |
| 2026-04-21 22:10 | 34.87188 | -90.18252 | 2070 ft | 240 kts | 263° |
| 2026-04-21 22:11 | 34.86943 | -90.20259 | 2042 ft | 239 kts | 259° |
| 2026-04-21 22:11 | 34.86616 | -90.22231 | 2047 ft | 236 kts | 259° |
| 2026-04-21 22:11 | 34.86283 | -90.24181 | 2044 ft | 234 kts | 258° |
| 2026-04-21 22:11 | 34.85952 | -90.26116 | 2042 ft | 233 kts | 258° |
| 2026-04-21 22:12 | 34.85623 | -90.28038 | 2037 ft | 231 kts | 258° |
| 2026-04-21 22:12 | 34.85291 | -90.29958 | 2039 ft | 232 kts | 258° |
| 2026-04-21 22:12 | 34.84964 | -90.31864 | 2090 ft | 228 kts | 258° |
| 2026-04-21 22:12 | 34.84643 | -90.33751 | 2131 ft | 228 kts | 258° |
| 2026-04-21 22:13 | 34.84320 | -90.35635 | 2141 ft | 227 kts | 258° |
| 2026-04-21 22:13 | 34.84000 | -90.37517 | 2148 ft | 227 kts | 258° |
| 2026-04-21 22:13 | 34.83679 | -90.39395 | 2159 ft | 226 kts | 258° |
| 2026-04-21 22:13 | 34.83358 | -90.41272 | 2160 ft | 227 kts | 258° |
| 2026-04-21 22:14 | 34.83041 | -90.43148 | 2159 ft | 227 kts | 258° |
| 2026-04-21 22:14 | 34.82720 | -90.45030 | 2162 ft | 227 kts | 258° |
| 2026-04-21 22:14 | 34.82404 | -90.46911 | 2162 ft | 227 kts | 258° |
| 2026-04-21 22:14 | 34.82081 | -90.48800 | 2165 ft | 229 kts | 258° |
| 2026-04-21 22:15 | 34.81761 | -90.50704 | 2160 ft | 229 kts | 258° |
| 2026-04-21 22:15 | 34.81438 | -90.52604 | 2165 ft | 230 kts | 258° |
| 2026-04-21 22:15 | 34.81117 | -90.54511 | 2165 ft | 230 kts | 259° |
| 2026-04-21 22:15 | 34.80794 | -90.56419 | 2166 ft | 230 kts | 258° |
| 2026-04-21 22:16 | 34.80473 | -90.58327 | 2165 ft | 230 kts | 258° |
| 2026-04-21 22:16 | 34.80156 | -90.60229 | 2169 ft | 230 kts | 258° |
| 2026-04-21 22:16 | 34.79835 | -90.62135 | 2160 ft | 230 kts | 258° |
| 2026-04-21 22:16 | 34.79517 | -90.64039 | 2165 ft | 230 kts | 258° |
| 2026-04-21 22:17 | 34.79201 | -90.65916 | 2166 ft | 230 kts | 259° |
| 2026-04-21 22:17 | 34.78882 | -90.67827 | 2163 ft | 230 kts | 259° |
| 2026-04-21 22:17 | 34.78809 | -90.69760 | 2170 ft | 229 kts | 275° |
| 2026-04-21 22:17 | 34.79114 | -90.71661 | 2164 ft | 229 kts | 286° |
| 2026-04-21 22:18 | 34.79521 | -90.73528 | 2163 ft | 228 kts | 273° |
| 2026-04-21 22:18 | 34.79343 | -90.75440 | 2158 ft | 228 kts | 259° |
| 2026-04-21 22:18 | 34.79020 | -90.77328 | 2172 ft | 228 kts | 258° |
| 2026-04-21 22:18 | 34.78684 | -90.79219 | 2170 ft | 229 kts | 258° |
| 2026-04-21 22:19 | 34.78344 | -90.81114 | 2167 ft | 230 kts | 258° |
| 2026-04-21 22:19 | 34.77997 | -90.83012 | 2166 ft | 229 kts | 258° |
| 2026-04-21 22:19 | 34.77655 | -90.84910 | 2171 ft | 231 kts | 258° |
| 2026-04-21 22:19 | 34.77313 | -90.86814 | 2166 ft | 230 kts | 258° |
| 2026-04-21 22:20 | 34.76968 | -90.88713 | 2171 ft | 230 kts | 258° |
| 2026-04-21 22:20 | 34.76626 | -90.90618 | 2171 ft | 230 kts | 258° |
| 2026-04-21 22:20 | 34.76285 | -90.92524 | 2169 ft | 230 kts | 258° |
| 2026-04-21 22:20 | 34.75937 | -90.94422 | 2169 ft | 229 kts | 258° |
| 2026-04-21 22:21 | 34.75605 | -90.96292 | 2176 ft | 230 kts | 258° |
| 2026-04-21 22:21 | 34.75263 | -90.98198 | 2168 ft | 231 kts | 258° |
| 2026-04-21 22:21 | 34.74919 | -91.00105 | 2179 ft | 231 kts | 258° |
| 2026-04-21 22:21 | 34.74578 | -91.02011 | 2168 ft | 230 kts | 258° |
| 2026-04-21 22:22 | 34.74239 | -91.03917 | 2172 ft | 231 kts | 258° |
| 2026-04-21 22:22 | 34.73899 | -91.05819 | 2171 ft | 230 kts | 258° |
| 2026-04-21 22:22 | 34.73558 | -91.07724 | 2174 ft | 230 kts | 258° |
| 2026-04-21 22:22 | 34.73216 | -91.09650 | 2171 ft | 235 kts | 258° |
| 2026-04-21 22:23 | 34.72868 | -91.11612 | 2175 ft | 239 kts | 258° |
| 2026-04-21 22:23 | 34.72582 | -91.13615 | 2180 ft | 242 kts | 262° |
| 2026-04-21 22:23 | 34.72341 | -91.15652 | 2175 ft | 244 kts | 262° |
| 2026-04-21 22:23 | 34.72108 | -91.17709 | 2179 ft | 247 kts | 264° |
| 2026-04-21 22:24 | 34.72073 | -91.19796 | 2175 ft | 247 kts | 271° |
| 2026-04-21 22:24 | 34.72083 | -91.21890 | 2175 ft | 248 kts | 270° |
| 2026-04-21 22:24 | 34.72116 | -91.23982 | 2169 ft | 249 kts | 271° |
| 2026-04-21 22:24 | 34.72143 | -91.26081 | 2177 ft | 249 kts | 271° |
| 2026-04-21 22:25 | 34.72171 | -91.28179 | 2173 ft | 247 kts | 271° |
| 2026-04-21 22:25 | 34.72206 | -91.30261 | 2176 ft | 246 kts | 271° |
| 2026-04-21 22:25 | 34.72234 | -91.32330 | 2172 ft | 244 kts | 271° |
| 2026-04-21 22:25 | 34.72265 | -91.34384 | 2171 ft | 242 kts | 271° |
| 2026-04-21 22:26 | 34.72297 | -91.36421 | 2168 ft | 240 kts | 271° |
| 2026-04-21 22:26 | 34.72320 | -91.37762 | 2166 ft | 239 kts | 271° |
| 2026-04-21 22:26 | 34.72361 | -91.40468 | 2165 ft | 239 kts | 271° |
| 2026-04-21 22:26 | 34.72383 | -91.41801 | 2163 ft | 238 kts | 271° |
| 2026-04-21 22:27 | 34.72415 | -91.43809 | 2165 ft | 237 kts | 271° |
| 2026-04-21 22:27 | 34.72449 | -91.45817 | 2171 ft | 237 kts | 271° |
| 2026-04-21 22:27 | 34.72484 | -91.47824 | 2163 ft | 237 kts | 271° |
| 2026-04-21 22:27 | 34.72517 | -91.49829 | 2167 ft | 238 kts | 271° |
| 2026-04-21 22:28 | 34.72553 | -91.51851 | 2161 ft | 240 kts | 271° |
| 2026-04-21 22:28 | 34.72589 | -91.53880 | 2168 ft | 240 kts | 271° |
| 2026-04-21 22:28 | 34.72623 | -91.55920 | 2168 ft | 242 kts | 271° |
| 2026-04-21 22:28 | 34.72659 | -91.57964 | 2171 ft | 243 kts | 271° |
| 2026-04-21 22:29 | 34.72697 | -91.60026 | 2168 ft | 245 kts | 271° |
| 2026-04-21 22:29 | 34.72735 | -91.62074 | 2170 ft | 246 kts | 271° |
| 2026-04-21 22:29 | 34.72775 | -91.64179 | 2171 ft | 245 kts | 271° |
| 2026-04-21 22:29 | 34.72812 | -91.66217 | 2172 ft | 244 kts | 271° |
| 2026-04-21 22:30 | 34.72852 | -91.68291 | 2176 ft | 245 kts | 271° |
| 2026-04-21 22:30 | 34.72889 | -91.70364 | 2172 ft | 245 kts | 271° |
| 2026-04-21 22:30 | 34.72929 | -91.72434 | 2173 ft | 244 kts | 271° |
| 2026-04-21 22:30 | 34.72971 | -91.74498 | 2174 ft | 244 kts | 271° |
| 2026-04-21 22:31 | 34.73008 | -91.76562 | 2177 ft | 244 kts | 271° |
| 2026-04-21 22:31 | 34.73048 | -91.78628 | 2176 ft | 245 kts | 271° |
| 2026-04-21 22:31 | 34.73100 | -91.80696 | 2174 ft | 244 kts | 271° |
| 2026-04-21 22:31 | 34.73134 | -91.82763 | 2176 ft | 245 kts | 271° |
| 2026-04-21 22:32 | 34.73176 | -91.84831 | 2176 ft | 244 kts | 271° |
| 2026-04-21 22:32 | 34.73217 | -91.86897 | 2173 ft | 244 kts | 271° |
| 2026-04-21 22:32 | 34.73259 | -91.88959 | 2173 ft | 244 kts | 271° |
| 2026-04-21 22:32 | 34.73304 | -91.91021 | 2178 ft | 243 kts | 271° |
| 2026-04-21 22:33 | 34.73344 | -91.93080 | 2172 ft | 244 kts | 271° |
| 2026-04-21 22:33 | 34.73390 | -91.95146 | 2174 ft | 245 kts | 270° |
| 2026-04-21 22:33 | 34.73433 | -91.97208 | 2176 ft | 244 kts | 272° |
| 2026-04-21 22:33 | 34.73483 | -91.99271 | 2175 ft | 244 kts | 271° |
| 2026-04-21 22:34 | 34.73524 | -92.01305 | 2172 ft | 244 kts | 272° |
| 2026-04-21 22:34 | 34.73577 | -92.03392 | 2175 ft | 245 kts | 271° |
| 2026-04-21 22:34 | 34.73620 | -92.05436 | 2176 ft | 246 kts | 272° |
| 2026-04-21 22:34 | 34.73889 | -92.07429 | 2196 ft | 234 kts | 288° |
| 2026-04-21 22:35 | 34.74608 | -92.09185 | 1993 ft | 232 kts | 303° |
| 2026-04-21 22:35 | 34.75582 | -92.10748 | 1748 ft | 231 kts | 309° |
| 2026-04-21 22:35 | 34.76585 | -92.12266 | 1653 ft | 225 kts | 306° |
| 2026-04-21 22:35 | 34.77441 | -92.13829 | 1640 ft | 216 kts | 299° |
| 2026-04-21 22:36 | 34.77697 | -92.16979 | 1586 ft | 181 kts | 233° |
| 2026-04-21 22:36 | 34.76838 | -92.18103 | 1286 ft | 183 kts | 223° |
| 2026-04-21 22:36 | 34.75924 | -92.19177 | 953 ft | 181 kts | 224° |
| 2026-04-21 22:37 | 34.75078 | -92.20194 | 586 ft | 162 kts | 225° |
| 2026-04-21 22:37 | 34.74353 | -92.21109 | 363 ft | 140 kts | 226° |
| 2026-04-21 22:37 | 34.73736 | -92.21907 | 263 ft | 119 kts | 226° |
| 2026-04-21 22:37 | 34.73354 | -92.22394 | 262 ft | 44 kts | 223° |
| 2026-04-21 22:38 | 34.73193 | -92.22612 | 259 ft | 34 kts | 234° |
| 2026-04-21 22:38 | 34.73110 | -92.22864 | 257 ft | 31 kts | 258° |
| 2026-04-21 22:38 | 34.73090 | -92.23120 | 257 ft | 29 kts | 273° |
| 2026-04-21 22:38 | 34.73191 | -92.23302 | 260 ft | 25 kts | 322° |
| 2026-04-21 22:39 | 34.73323 | -92.23427 | 261 ft | 23 kts | 330° |
| 2026-04-21 22:39 | 34.73439 | -92.23391 | 261 ft | 16 kts | 328° |
| 2026-04-21 22:39 | 34.73442 | -92.23418 | 261 ft | 9 kts | 230° |
| 2026-04-21 22:39 | 34.73437 | -92.23426 | 261 ft | 0 kts | 230° |